Time;durP1;ratioP1;P1;durP2;ratioP2;P2;SDS_P1;SDS_P2;PMS_P1;PMS_P2;Temp;Humidity;BMP_temperature;BMP_pressure;BME280_temperature;BME280_humidity;BME280_pressure;Samples;Min_cycle;Max_cycle;Signal;HPM_P1;HPM_P2
2022/08/30 00:03:22;;;;;;;5.55;4.35;;;11.40;99.90;;;;;;5114445;28;20045;-79
2022/08/30 00:05:48;;;;;;;5.97;4.78;;;11.40;99.90;;;;;;5114276;28;20035;-77
2022/08/30 00:08:14;;;;;;;8.80;4.55;;;11.40;99.90;;;;;;5113325;28;20016;-76
2022/08/30 00:10:42;;;;;;;5.80;4.55;;;11.40;99.90;;;;;;5114187;28;20087;-79
2022/08/30 00:13:12;;;;;;;10.45;5.43;;;11.40;99.90;;;;;;5114524;28;20020;-78
2022/08/30 00:15:42;;;;;;;4.75;4.25;;;11.30;99.90;;;;;;5112837;28;20030;-76
2022/08/30 00:18:08;;;;;;;5.38;4.47;;;11.30;99.90;;;;;;5113404;28;20055;-78
2022/08/30 00:20:35;;;;;;;4.95;3.75;;;11.30;99.90;;;;;;5112929;28;20076;-76
2022/08/30 00:23:02;;;;;;;4.05;3.10;;;11.30;99.90;;;;;;5113096;28;20042;-77
2022/08/30 00:25:28;;;;;;;5.78;2.47;;;11.30;99.90;;;;;;5113795;28;20435;-77
2022/08/30 00:27:53;;;;;;;2.70;2.00;;;11.10;99.90;;;;;;5114361;28;20024;-76
2022/08/30 00:30:19;;;;;;;1.88;1.77;;;11.10;99.90;;;;;;5112530;28;20028;-77
2022/08/30 00:32:45;;;;;;;2.72;2.53;;;11.00;99.90;;;;;;5112939;28;20019;-78
2022/08/30 00:35:14;;;;;;;3.40;2.65;;;10.90;99.90;;;;;;5113770;28;20028;-75
2022/08/30 00:37:40;;;;;;;1.90;1.80;;;10.80;99.90;;;;;;5112706;28;20532;-77
2022/08/30 00:40:08;;;;;;;1.88;1.77;;;10.60;99.90;;;;;;5113593;28;20149;-78
2022/08/30 00:42:35;;;;;;;1.98;1.88;;;10.60;99.90;;;;;;5113963;28;20024;-78
2022/08/30 00:45:08;;;;;;;2.35;2.15;;;10.60;99.90;;;;;;5112447;28;20134;-77
2022/08/30 00:47:34;;;;;;;3.33;1.92;;;10.60;99.90;;;;;;5112711;28;20085;-78
2022/08/30 00:50:00;;;;;;;3.25;2.20;;;10.60;99.90;;;;;;5113595;28;20032;-79
2022/08/30 00:52:26;;;;;;;3.63;2.10;;;10.60;99.90;;;;;;5112592;28;20016;-77
2022/08/30 00:54:52;;;;;;;3.13;2.17;;;10.60;99.90;;;;;;5113602;28;20106;-76
2022/08/30 00:57:18;;;;;;;4.88;2.63;;;10.60;99.90;;;;;;5112477;28;20023;-78
2022/08/30 00:59:48;;;;;;;2.42;2.22;;;10.60;99.90;;;;;;5113423;28;20431;-78
2022/08/30 01:02:16;;;;;;;6.18;2.42;;;10.60;99.90;;;;;;5111969;28;20456;-77
2022/08/30 01:04:43;;;;;;;3.15;2.20;;;10.60;99.90;;;;;;5113090;28;20138;-77
2022/08/30 01:07:10;;;;;;;3.08;2.65;;;10.60;99.90;;;;;;5113739;28;20073;-78
2022/08/30 01:09:37;;;;;;;3.30;2.53;;;10.60;99.90;;;;;;5112263;28;20046;-77
2022/08/30 01:12:04;;;;;;;2.55;2.35;;;10.50;99.90;;;;;;5113784;28;20020;-77
2022/08/30 01:14:32;;;;;;;3.30;2.95;;;10.50;99.90;;;;;;5111963;28;20024;-76
2022/08/30 01:17:00;;;;;;;3.60;3.30;;;10.50;99.90;;;;;;5112417;28;20393;-79
2022/08/30 01:19:35;;;;;;;4.05;3.45;;;10.50;99.90;;;;;;5112002;28;20016;-78
2022/08/30 01:22:10;;;;;;;5.80;3.30;;;10.60;99.90;;;;;;5112343;28;20160;-77
2022/08/30 01:24:36;;;;;;;5.93;3.85;;;10.60;99.90;;;;;;5113141;28;20016;-78
2022/08/30 01:27:02;;;;;;;4.75;4.20;;;10.60;99.90;;;;;;5113615;28;20353;-78
2022/08/30 01:29:28;;;;;;;5.32;3.58;;;10.60;99.90;;;;;;5113163;28;20031;-76
2022/08/30 01:31:54;;;;;;;8.60;4.70;;;10.60;99.90;;;;;;5113436;28;20023;-76
2022/08/30 01:34:19;;;;;;;7.63;4.50;;;10.60;99.90;;;;;;5111625;28;20461;-77
2022/08/30 01:36:46;;;;;;;4.70;3.85;;;10.60;99.90;;;;;;5112079;28;20100;-77
2022/08/30 01:39:16;;;;;;;5.68;4.40;;;10.50;99.90;;;;;;5111703;28;20024;-76
2022/08/30 01:41:42;;;;;;;6.97;4.70;;;10.50;99.90;;;;;;5112228;28;20119;-76
2022/08/30 01:44:11;;;;;;;6.38;4.28;;;10.50;99.90;;;;;;5112722;28;20024;-76
2022/08/30 01:46:40;;;;;;;5.75;4.10;;;10.40;99.90;;;;;;5112157;28;20030;-78
2022/08/30 01:49:10;;;;;;;8.68;4.53;;;10.50;99.90;;;;;;5111596;28;20024;-76
2022/08/30 01:51:36;;;;;;;5.03;3.83;;;10.40;99.90;;;;;;5113429;28;20066;-76
2022/08/30 01:54:02;;;;;;;5.15;4.28;;;10.40;99.90;;;;;;5111498;28;20042;-79
2022/08/30 01:56:28;;;;;;;8.40;6.68;;;10.40;99.90;;;;;;5113248;28;20023;-78
2022/08/30 01:58:56;;;;;;;5.68;5.18;;;10.30;99.90;;;;;;5111788;28;20024;-77
2022/08/30 02:01:24;;;;;;;4.75;3.22;;;10.30;99.90;;;;;;5112782;28;20012;-78
2022/08/30 02:03:51;;;;;;;3.05;2.85;;;10.20;99.90;;;;;;5111559;28;20032;-77
2022/08/30 02:06:19;;;;;;;3.75;2.67;;;10.20;99.90;;;;;;5111600;28;20027;-76
2022/08/30 02:08:45;;;;;;;2.17;1.83;;;10.10;99.90;;;;;;5113238;28;20058;-76
2022/08/30 02:11:12;;;;;;;2.88;2.67;;;10.10;99.90;;;;;;5112933;28;20028;-76
2022/08/30 02:13:40;;;;;;;3.72;2.83;;;10.10;99.90;;;;;;5112425;28;20023;-78
2022/08/30 02:16:11;;;;;;;2.78;2.55;;;10.10;99.90;;;;;;5115103;28;20165;-77
2022/08/30 02:18:38;;;;;;;4.22;3.40;;;10.00;99.90;;;;;;5116988;27;20089;-75
2022/08/30 02:21:05;;;;;;;3.30;3.00;;;10.10;99.90;;;;;;5115131;28;20026;-78
2022/08/30 02:23:31;;;;;;;6.63;3.90;;;10.10;99.90;;;;;;5115377;28;20540;-76
2022/08/30 02:25:56;;;;;;;6.88;4.63;;;10.10;99.90;;;;;;5116138;28;20115;-76
2022/08/30 02:28:22;;;;;;;5.72;3.28;;;10.00;99.90;;;;;;5115267;28;20023;-76
2022/08/30 02:30:48;;;;;;;4.25;3.85;;;10.00;99.90;;;;;;5114849;28;20094;-77
2022/08/30 02:33:14;;;;;;;4.10;3.58;;;10.00;99.90;;;;;;5115343;28;20455;-77
2022/08/30 02:35:40;;;;;;;4.65;3.53;;;10.00;99.90;;;;;;5114648;28;20031;-77
2022/08/30 02:38:06;;;;;;;4.03;3.60;;;10.00;99.90;;;;;;5116445;28;20028;-76
2022/08/30 02:40:32;;;;;;;3.78;2.92;;;10.00;99.90;;;;;;5114616;28;20448;-77
2022/08/30 02:42:58;;;;;;;6.28;3.90;;;10.00;99.90;;;;;;5116352;28;20085;-77
2022/08/30 02:45:24;;;;;;;7.10;4.10;;;10.00;99.90;;;;;;5115676;28;20035;-77
2022/08/30 02:47:50;;;;;;;4.63;4.07;;;10.00;99.90;;;;;;5116320;28;20059;-78
2022/08/30 02:50:16;;;;;;;6.78;3.85;;;10.10;99.90;;;;;;5115712;28;20021;-76
2022/08/30 02:52:43;;;;;;;6.43;3.53;;;10.00;99.90;;;;;;5114747;28;20024;-76
2022/08/30 02:55:09;;;;;;;5.10;4.05;;;10.00;99.90;;;;;;5115731;28;20066;-76
2022/08/30 02:57:36;;;;;;;3.58;3.10;;;9.90;99.90;;;;;;5116124;28;20384;-78
2022/08/30 03:00:05;;;;;;;2.60;2.35;;;9.90;99.90;;;;;;5114173;28;20088;-77
2022/08/30 03:02:31;;;;;;;2.30;2.10;;;9.90;99.90;;;;;;5114500;28;20028;-78
2022/08/30 03:04:57;;;;;;;2.35;2.15;;;9.80;99.90;;;;;;5115424;28;20047;-76
2022/08/30 03:07:23;;;;;;;3.45;2.72;;;9.70;99.90;;;;;;5114613;28;20019;-76
2022/08/30 03:09:48;;;;;;;3.42;2.85;;;9.70;99.90;;;;;;5114078;28;20020;-76
2022/08/30 03:12:14;;;;;;;2.58;2.40;;;9.70;99.90;;;;;;5115713;28;20042;-78
2022/08/30 03:14:40;;;;;;;2.50;2.30;;;9.70;99.90;;;;;;5113976;28;20046;-78
2022/08/30 03:17:07;;;;;;;4.25;3.33;;;9.70;99.90;;;;;;5115749;28;20016;-78
2022/08/30 03:19:38;;;;;;;3.35;2.85;;;9.70;99.90;;;;;;5113921;28;20136;-77
2022/08/30 03:22:04;;;;;;;6.43;2.83;;;9.70;99.90;;;;;;5114391;28;20073;-77
2022/08/30 03:24:31;;;;;;;5.45;2.85;;;9.70;99.90;;;;;;5114817;27;20028;-76
2022/08/30 03:26:57;;;;;;;3.05;2.75;;;9.70;99.90;;;;;;5114207;28;20024;-77
2022/08/30 03:29:22;;;;;;;2.58;2.30;;;9.70;99.90;;;;;;5113578;28;20068;-78
2022/08/30 03:31:48;;;;;;;2.33;1.70;;;9.70;99.90;;;;;;5114335;28;20365;-78
2022/08/30 03:34:14;;;;;;;2.80;2.00;;;9.60;99.90;;;;;;5113581;28;20045;-77
2022/08/30 03:36:40;;;;;;;2.10;1.90;;;9.50;99.90;;;;;;5115410;28;20023;-78
2022/08/30 03:39:07;;;;;;;3.40;1.90;;;9.40;99.90;;;;;;5114829;28;20544;-76
2022/08/30 03:41:33;;;;;;;1.67;1.58;;;9.40;99.90;;;;;;5115228;28;20026;-77
2022/08/30 03:43:59;;;;;;;3.72;1.90;;;9.30;99.90;;;;;;5113956;28;20028;-76
2022/08/30 03:46:25;;;;;;;2.10;2.00;;;9.20;99.90;;;;;;5113672;28;20096;-75
2022/08/30 03:48:54;;;;;;;2.80;2.60;;;9.10;99.90;;;;;;5113780;28;20027;-76
2022/08/30 03:51:20;;;;;;;3.00;2.70;;;9.10;99.90;;;;;;5113063;28;20024;-78
2022/08/30 03:53:46;;;;;;;3.72;2.83;;;9.10;99.90;;;;;;5114575;28;20024;-76
2022/08/30 03:56:12;;;;;;;7.45;3.38;;;9.20;99.90;;;;;;5113526;28;20023;-76
2022/08/30 03:58:39;;;;;;;9.63;3.38;;;9.20;99.90;;;;;;5113648;28;20051;-76
2022/08/30 04:01:05;;;;;;;3.90;2.80;;;9.20;99.90;;;;;;5114270;28;20018;-78
2022/08/30 04:03:31;;;;;;;5.10;3.03;;;9.20;99.90;;;;;;5113149;28;20043;-76
2022/08/30 04:05:57;;;;;;;6.25;3.45;;;9.30;99.90;;;;;;5114231;28;20058;-76
2022/08/30 04:08:23;;;;;;;4.05;3.30;;;9.30;99.90;;;;;;5113410;28;20019;-77
2022/08/30 04:10:49;;;;;;;9.38;3.30;;;9.30;99.90;;;;;;5112976;28;20407;-77
2022/08/30 04:13:15;;;;;;;7.50;4.03;;;9.40;99.90;;;;;;5113287;28;20408;-77
2022/08/30 04:15:41;;;;;;;8.75;4.60;;;9.40;99.90;;;;;;5112671;28;20027;-76
2022/08/30 04:18:07;;;;;;;7.13;4.57;;;9.50;99.90;;;;;;5113202;28;20047;-76
2022/08/30 04:20:33;;;;;;;5.22;3.58;;;9.50;99.90;;;;;;5113235;28;20062;-76
2022/08/30 04:22:59;;;;;;;7.78;3.65;;;9.60;99.90;;;;;;5114598;28;20019;-76
2022/08/30 04:25:25;;;;;;;3.50;3.20;;;9.60;99.90;;;;;;5113716;28;20088;-78
2022/08/30 04:27:50;;;;;;;2.97;2.60;;;9.60;99.90;;;;;;5114323;28;20020;-76
2022/08/30 04:30:17;;;;;;;3.70;2.42;;;9.60;99.90;;;;;;5112432;28;20023;-76
2022/08/30 04:32:44;;;;;;;4.55;2.50;;;9.60;99.90;;;;;;5112860;28;20019;-76
2022/08/30 04:35:10;;;;;;;4.68;3.03;;;9.70;99.90;;;;;;5114033;28;20385;-77
2022/08/30 04:37:37;;;;;;;4.22;2.40;;;9.70;99.90;;;;;;5113587;28;20459;-76
2022/08/30 04:40:04;;;;;;;5.63;4.32;;;9.80;99.90;;;;;;5112351;28;20085;-77
2022/08/30 04:42:32;;;;;;;6.53;3.85;;;9.90;99.90;;;;;;5114008;28;20105;-77
2022/08/30 04:45:00;;;;;;;5.03;4.03;;;10.00;99.90;;;;;;5112395;28;20023;-76
2022/08/30 04:47:26;;;;;;;6.07;3.90;;;10.10;99.90;;;;;;5113894;28;20024;-77
2022/08/30 04:49:52;;;;;;;3.17;2.65;;;10.10;99.90;;;;;;5113695;28;20024;-76
2022/08/30 04:52:18;;;;;;;4.45;2.95;;;10.20;99.90;;;;;;5112557;28;20050;-77
2022/08/30 04:54:44;;;;;;;4.75;3.65;;;10.30;99.90;;;;;;5113384;28;20019;-77
2022/08/30 04:57:09;;;;;;;4.05;2.80;;;10.30;99.90;;;;;;5114138;28;20085;-76
2022/08/30 04:59:37;;;;;;;3.10;2.80;;;10.40;99.90;;;;;;5112128;28;20031;-77
2022/08/30 05:02:03;;;;;;;4.47;3.28;;;10.40;99.90;;;;;;5113677;28;20026;-76
2022/08/30 05:04:29;;;;;;;6.13;4.13;;;10.50;99.90;;;;;;5111803;28;20398;-76
2022/08/30 05:06:55;;;;;;;6.03;4.30;;;10.60;99.90;;;;;;5113891;28;20100;-77
2022/08/30 05:09:21;;;;;;;7.63;4.93;;;10.70;99.90;;;;;;5111821;28;20477;-77
2022/08/30 05:11:47;;;;;;;8.27;4.72;;;10.80;99.90;;;;;;5112260;28;20020;-77
2022/08/30 05:14:13;;;;;;;7.43;4.55;;;10.90;99.90;;;;;;5111345;28;20028;-76
2022/08/30 05:16:40;;;;;;;8.10;5.10;;;11.10;99.90;;;;;;5112272;28;20023;-77
2022/08/30 05:19:06;;;;;;;6.93;4.60;;;11.30;99.90;;;;;;5111214;28;20035;-76
2022/08/30 05:21:32;;;;;;;13.45;5.20;;;11.40;99.90;;;;;;5113542;28;20027;-76
2022/08/30 05:23:59;;;;;;;11.00;5.43;;;11.60;99.90;;;;;;5113636;28;20499;-78
2022/08/30 05:26:31;;;;;;;11.82;5.85;;;11.70;99.90;;;;;;5092110;28;20088;-77
2022/08/30 05:28:57;;;;;;;14.57;6.93;;;11.90;99.90;;;;;;5096000;28;20469;-77
2022/08/30 05:31:26;;;;;;;16.85;7.97;;;12.10;99.90;;;;;;5094944;28;20035;-77
2022/08/30 05:33:53;;;;;;;17.50;9.55;;;12.30;99.90;;;;;;5109646;28;20080;-76
2022/08/30 05:36:21;;;;;;;19.58;10.55;;;12.40;99.90;;;;;;5109510;28;20051;-76
2022/08/30 05:38:47;;;;;;;21.38;11.00;;;12.60;99.90;;;;;;5093730;28;20070;-76
2022/08/30 05:41:12;;;;;;;25.88;13.65;;;12.70;99.90;;;;;;5097402;28;20016;-77
2022/08/30 05:43:39;;;;;;;23.48;14.88;;;12.90;99.90;;;;;;5092883;28;20363;-78
2022/08/30 05:46:07;;;;;;;27.77;13.52;;;13.00;99.90;;;;;;5100913;28;20565;-77
2022/08/30 05:48:33;;;;;;;24.50;13.55;;;13.20;99.90;;;;;;5100784;28;20047;-76
2022/08/30 05:51:09;;;;;;;28.25;15.32;;;13.30;99.90;;;;;;5105801;28;20024;-76
2022/08/30 05:53:35;;;;;;;32.92;17.02;;;13.50;99.90;;;;;;5103916;28;20518;-78
2022/08/30 05:56:04;;;;;;;31.00;14.40;;;13.60;99.90;;;;;;5115964;28;20035;-77
2022/08/30 05:58:30;;;;;;;29.05;15.68;;;13.70;99.90;;;;;;5115795;28;20019;-76
2022/08/30 06:00:56;;;;;;;31.65;15.32;;;13.90;99.90;;;;;;5115573;28;20484;-76
2022/08/30 06:03:22;;;;;;;29.58;15.68;;;14.00;99.90;;;;;;5116471;28;20105;-76
2022/08/30 06:05:48;;;;;;;26.42;14.77;;;14.10;99.90;;;;;;5113600;28;20040;-77
2022/08/30 06:08:13;;;;;;;24.95;15.93;;;14.20;99.90;;;;;;5098761;28;20408;-78
2022/08/30 06:10:39;;;;;;;33.75;16.67;;;14.30;99.90;;;;;;5094715;28;20024;-78
2022/08/30 06:13:05;;;;;;;27.83;16.42;;;14.50;99.90;;;;;;5094084;28;20016;-78
2022/08/30 06:15:34;;;;;;;24.77;15.88;;;14.70;99.90;;;;;;5094380;28;20036;-77
2022/08/30 06:17:59;;;;;;;28.42;16.23;;;14.70;99.90;;;;;;5094211;28;20026;-78
2022/08/30 06:20:25;;;;;;;22.23;13.70;;;14.80;99.90;;;;;;5113005;28;20035;-78
2022/08/30 06:22:51;;;;;;;25.42;15.98;;;14.90;99.90;;;;;;5109354;28;20055;-79
2022/08/30 06:25:16;;;;;;;22.35;14.32;;;15.10;99.90;;;;;;5114590;28;20134;-79
2022/08/30 06:27:42;;;;;;;24.33;14.30;;;15.30;99.90;;;;;;5115881;28;20050;-80
2022/08/30 06:30:09;;;;;;;23.27;14.00;;;15.30;99.90;;;;;;5112583;28;20073;-80
2022/08/30 06:32:38;;;;;;;32.53;15.88;;;15.50;99.90;;;;;;5108349;28;20532;-80
2022/08/30 06:35:05;;;;;;;28.20;14.73;;;15.60;99.90;;;;;;5110762;28;20024;-79
2022/08/30 06:37:31;;;;;;;26.08;13.13;;;15.80;99.90;;;;;;5112767;28;20035;-80
2022/08/30 06:39:59;;;;;;;24.13;12.43;;;16.00;99.90;;;;;;5114911;28;20023;-78
2022/08/30 06:42:30;;;;;;;25.35;11.77;;;16.20;99.90;;;;;;5114580;28;20025;-80
2022/08/30 06:44:57;;;;;;;20.42;11.70;;;16.40;99.90;;;;;;5115697;28;20404;-79
2022/08/30 06:47:24;;;;;;;20.67;11.93;;;16.70;99.90;;;;;;5115507;28;20024;-80
2022/08/30 06:49:49;;;;;;;21.33;11.25;;;16.90;99.90;;;;;;5101279;28;20031;-80
2022/08/30 06:52:15;;;;;;;23.38;13.25;;;16.90;99.90;;;;;;5115426;28;20026;-80
2022/08/30 06:54:41;;;;;;;19.80;12.07;;;17.10;99.90;;;;;;5113963;28;20503;-80
2022/08/30 06:57:06;;;;;;;18.25;12.15;;;17.10;99.90;;;;;;5115203;28;20108;-81
2022/08/30 06:59:32;;;;;;;21.40;12.30;;;17.30;99.90;;;;;;5114474;28;20450;-79
2022/08/30 07:01:58;;;;;;;17.52;12.43;;;17.40;99.90;;;;;;5113912;28;20044;-81
2022/08/30 07:04:24;;;;;;;17.52;11.18;;;17.60;99.90;;;;;;5105774;28;20051;-80
2022/08/30 07:06:50;;;;;;;17.48;10.88;;;17.60;99.90;;;;;;5104365;28;20059;-80
2022/08/30 07:09:16;;;;;;;18.73;10.57;;;17.80;99.90;;;;;;5108858;28;20449;-79
2022/08/30 07:11:42;;;;;;;20.65;10.50;;;18.00;99.90;;;;;;5114664;28;20023;-81
2022/08/30 07:14:08;;;;;;;14.32;9.55;;;18.10;99.90;;;;;;5114735;28;20027;-79
2022/08/30 07:16:34;;;;;;;12.55;8.82;;;18.20;99.90;;;;;;5115377;28;20080;-80
2022/08/30 07:19:01;;;;;;;12.57;7.80;;;18.20;99.90;;;;;;5108761;28;20077;-80
2022/08/30 07:21:32;;;;;;;14.27;9.05;;;18.30;99.90;;;;;;5107164;28;20027;-79
2022/08/30 07:23:58;;;;;;;15.50;9.63;;;18.50;99.90;;;;;;5106124;28;20429;-79
2022/08/30 07:26:31;;;;;;;14.82;9.57;;;18.60;99.90;;;;;;5105375;28;20035;-80
2022/08/30 07:28:58;;;;;;;11.85;9.07;;;18.80;99.90;;;;;;5104046;28;20099;-79
2022/08/30 07:31:24;;;;;;;10.77;7.57;;;19.00;99.90;;;;;;5102242;28;20889;-79
2022/08/30 07:33:50;;;;;;;13.65;7.47;;;19.10;99.90;;;;;;5105766;28;20389;-79
2022/08/30 07:36:17;;;;;;;10.57;6.88;;;19.20;99.90;;;;;;5105056;28;20061;-79
2022/08/30 07:38:45;;;;;;;14.25;7.13;;;19.30;99.90;;;;;;5106284;28;20024;-80
2022/08/30 07:41:16;;;;;;;10.38;7.05;;;19.40;99.90;;;;;;5110729;28;20030;-80
2022/08/30 07:43:42;;;;;;;9.65;7.35;;;19.60;99.90;;;;;;5114511;28;20046;-80
2022/08/30 07:46:10;;;;;;;12.25;7.30;;;19.60;99.90;;;;;;5113072;28;20551;-79
2022/08/30 07:48:36;;;;;;;12.75;7.63;;;19.70;99.90;;;;;;5109120;28;20021;-79
2022/08/30 07:51:03;;;;;;;10.43;7.28;;;19.40;99.90;;;;;;5093613;28;20031;-79
2022/08/30 07:53:30;;;;;;;13.18;7.00;;;19.30;99.90;;;;;;5093232;28;20020;-80
2022/08/30 07:55:56;;;;;;;10.73;7.18;;;19.20;99.90;;;;;;5093616;28;20020;-81
2022/08/30 07:58:22;;;;;;;8.07;6.53;;;19.10;99.90;;;;;;5093377;28;20116;-80
2022/08/30 08:00:48;;;;;;;8.02;5.40;;;19.10;99.90;;;;;;5093573;28;20460;-80
2022/08/30 08:03:14;;;;;;;10.02;6.22;;;19.20;99.90;;;;;;5092394;28;20063;-80
2022/08/30 08:05:42;;;;;;;12.82;5.80;;;19.30;99.90;;;;;;5093701;28;20032;-79
2022/08/30 08:08:14;;;;;;;6.47;5.57;;;19.10;99.90;;;;;;5093453;28;20020;-80
2022/08/30 08:10:41;;;;;;;8.82;5.68;;;19.10;99.90;;;;;;5091408;28;20032;-80
2022/08/30 08:13:07;;;;;;;8.45;5.78;;;19.10;99.90;;;;;;5092689;28;20043;-80
2022/08/30 08:15:33;;;;;;;11.13;6.40;;;19.20;99.90;;;;;;5093247;28;20463;-79
2022/08/30 08:18:00;;;;;;;7.90;5.38;;;19.20;99.90;;;;;;5092850;28;20026;-80
2022/08/30 08:20:26;;;;;;;9.07;6.05;;;19.20;99.90;;;;;;5092642;28;20030;-79
2022/08/30 08:22:52;;;;;;;5.60;5.00;;;19.30;99.90;;;;;;5092851;28;20019;-80
2022/08/30 08:25:18;;;;;;;5.60;4.50;;;19.60;99.90;;;;;;5092735;28;20078;-80
2022/08/30 08:27:49;;;;;;;9.00;5.50;;;19.50;99.90;;;;;;5093206;28;20409;-81
2022/08/30 08:30:16;;;;;;;6.30;5.28;;;19.30;99.90;;;;;;5105407;28;20025;-81
2022/08/30 08:32:42;;;;;;;5.15;4.53;;;19.30;99.90;;;;;;5083596;28;20031;-80
2022/08/30 08:35:10;;;;;;;5.18;4.65;;;19.40;99.90;;;;;;5091265;28;20020;-80
2022/08/30 08:37:36;;;;;;;6.15;4.93;;;19.30;99.90;;;;;;5090394;28;20548;-81
2022/08/30 08:40:03;;;;;;;8.98;5.50;;;19.20;99.90;;;;;;5092540;28;20028;-80
2022/08/30 08:43:01;;;;;;;8.73;5.30;;;19.10;99.90;;;;;;5093600;28;20408;-80
2022/08/30 08:45:42;;;;;;;8.43;4.85;;;19.10;99.90;;;;;;5090434;28;20144;-79
2022/08/30 08:48:10;;;;;;;7.32;5.00;;;18.90;99.90;;;;;;5091997;28;20027;-79
2022/08/30 08:53:33;;;;;;;7.07;4.90;;;19.10;99.90;;;;;;5092920;28;20055;-80
2022/08/30 08:53:34;;;;;;;6.40;4.60;;;19.30;99.90;;;;;;5092532;28;20027;-80
2022/08/30 08:56:03;;;;;;;5.18;4.28;;;19.60;99.90;;;;;;5088127;28;20509;-80
2022/08/30 08:58:40;;;;;;;8.93;5.47;;;19.80;99.90;;;;;;5093104;28;20016;-81
2022/08/30 09:01:08;;;;;;;9.77;4.45;;;19.70;99.90;;;;;;5090562;28;20023;-80
2022/08/30 09:03:34;;;;;;;8.95;5.53;;;19.70;99.90;;;;;;5090631;28;20040;-80
2022/08/30 09:06:05;;;;;;;10.80;5.45;;;19.80;99.90;;;;;;5092427;28;20040;-79
2022/08/30 09:08:31;;;;;;;8.55;4.97;;;19.80;99.90;;;;;;5092922;28;20020;-82
2022/08/30 09:11:09;;;;;;;7.60;5.20;;;19.70;99.90;;;;;;5091148;28;20412;-82
2022/08/30 09:13:35;;;;;;;6.90;4.72;;;19.60;99.90;;;;;;5092790;28;20044;-77
2022/08/30 09:16:01;;;;;;;7.95;4.93;;;19.70;99.90;;;;;;5091626;28;20070;-81
2022/08/30 09:18:46;;;;;;;4.47;4.07;;;19.70;99.90;;;;;;5091485;28;20051;-82
2022/08/30 09:21:13;;;;;;;6.05;4.18;;;19.80;99.90;;;;;;5092308;28;20550;-82
2022/08/30 09:23:48;;;;;;;6.60;4.20;;;20.00;99.90;;;;;;5095336;28;20066;-78
2022/08/30 09:26:26;;;;;;;5.65;4.57;;;20.20;99.90;;;;;;5096352;28;20032;-82
2022/08/30 09:28:54;;;;;;;6.20;4.45;;;20.20;99.90;;;;;;5096726;28;20505;-82
2022/08/30 09:31:23;;;;;;;5.25;3.72;;;20.40;99.90;;;;;;5077356;28;20073;-82
2022/08/30 09:34:17;;;;;;;7.47;3.65;;;20.60;97.80;;;;;;5112283;28;20066;-81
2022/08/30 09:36:51;;;;;;;6.40;4.20;;;20.60;98.40;;;;;;5075933;28;20028;-82
2022/08/30 09:39:18;;;;;;;4.15;3.80;;;20.50;99.90;;;;;;5090439;28;20051;-81
2022/08/30 09:41:48;;;;;;;4.88;4.10;;;20.50;99.90;;;;;;5095665;28;20052;-81
2022/08/30 09:44:13;;;;;;;6.63;4.15;;;20.20;99.90;;;;;;5074512;28;20030;-81
2022/08/30 09:46:55;;;;;;;4.45;4.05;;;20.10;99.90;;;;;;5076315;28;20390;-82
2022/08/30 09:49:30;;;;;;;4.93;3.90;;;20.00;99.90;;;;;;5076152;28;20067;-82
2022/08/30 09:52:16;;;;;;;4.60;4.05;;;19.90;99.90;;;;;;5089394;28;20028;-81
2022/08/30 09:54:57;;;;;;;4.65;4.10;;;20.00;99.90;;;;;;5095185;28;20043;-81
2022/08/30 09:57:43;;;;;;;4.47;4.00;;;20.10;99.90;;;;;;5094590;28;20031;-80
2022/08/30 10:00:20;;;;;;;7.18;3.80;;;20.50;99.90;;;;;;5095575;28;20024;-80
2022/08/30 10:03:07;;;;;;;5.63;4.28;;;20.90;99.90;;;;;;5095496;28;20031;-80
2022/08/30 10:05:57;;;;;;;4.85;4.28;;;21.10;99.90;;;;;;5086338;28;20040;-81
2022/08/30 10:08:46;;;;;;;4.55;4.13;;;21.00;96.20;;;;;;5086041;28;20031;-82
2022/08/30 10:11:44;;;;;;;4.05;3.67;;;20.80;97.70;;;;;;5085141;28;20494;-81
2022/08/30 10:14:13;;;;;;;5.03;4.03;;;20.80;99.40;;;;;;5117003;27;20016;-82
2022/08/30 10:17:09;;;;;;;4.10;3.60;;;20.50;98.40;;;;;;5083362;28;20416;-81
2022/08/30 10:19:51;;;;;;;5.53;3.15;;;20.40;96.20;;;;;;5085051;28;20024;-80
2022/08/30 10:22:29;;;;;;;4.70;3.30;;;20.70;96.10;;;;;;5085074;28;20505;-82
2022/08/30 10:25:12;;;;;;;7.10;3.75;;;21.10;95.30;;;;;;5085627;28;20063;-81
2022/08/30 10:28:05;;;;;;;4.10;3.38;;;21.40;90.10;;;;;;5086557;28;20036;-81
2022/08/30 10:30:35;;;;;;;3.53;3.20;;;22.00;91.00;;;;;;5079794;28;20032;-81
2022/08/30 10:33:17;;;;;;;4.28;3.70;;;22.30;84.80;;;;;;5098565;28;20377;-82
2022/08/30 10:35:47;;;;;;;5.18;3.35;;;22.60;82.00;;;;;;5083091;28;20041;-82
2022/08/30 10:38:36;;;;;;;4.35;3.17;;;22.70;84.10;;;;;;5081253;28;20381;-81
2022/08/30 10:41:14;;;;;;;4.35;3.70;;;22.50;81.60;;;;;;5078958;28;20043;-82
2022/08/30 10:43:56;;;;;;;6.05;4.68;;;21.90;86.60;;;;;;5083676;28;20035;-81
2022/08/30 10:46:40;;;;;;;5.80;4.18;;;21.10;94.40;;;;;;5084344;28;20029;-81
2022/08/30 10:49:14;;;;;;;4.85;4.45;;;20.80;99.90;;;;;;5084569;27;20110;-81
2022/08/30 10:51:52;;;;;;;8.35;4.85;;;20.30;99.90;;;;;;5085198;28;20574;-80
2022/08/30 10:54:47;;;;;;;7.15;4.68;;;20.10;99.90;;;;;;5085126;27;20048;-81
2022/08/30 10:57:13;;;;;;;5.18;3.35;;;20.20;99.90;;;;;;5083791;28;20086;-79
2022/08/30 10:59:47;;;;;;;6.38;3.70;;;20.20;99.90;;;;;;5088246;27;20507;-79
2022/08/30 11:02:52;;;;;;;3.88;3.50;;;20.60;99.90;;;;;;5085653;28;20453;-79
2022/08/30 11:05:51;;;;;;;3.95;3.55;;;21.00;99.30;;;;;;5082918;28;21065;-80
2022/08/30 11:08:41;;;;;;;8.13;4.20;;;20.90;95.80;;;;;;5088373;28;20082;-80
2022/08/30 11:11:24;;;;;;;4.20;3.70;;;20.80;99.90;;;;;;5098563;28;20028;-80
2022/08/30 11:13:50;;;;;;;4.00;3.08;;;21.00;96.60;;;;;;5093243;28;20036;-80
2022/08/30 11:16:18;;;;;;;5.10;3.15;;;21.10;92.90;;;;;;5092316;28;20035;-80
2022/08/30 11:18:51;;;;;;;2.92;2.30;;;21.40;89.50;;;;;;5091976;28;20080;-79
2022/08/30 11:21:31;;;;;;;2.75;2.50;;;21.60;83.50;;;;;;5093547;28;20012;-80
2022/08/30 11:24:21;;;;;;;2.33;2.13;;;21.80;83.40;;;;;;5080511;28;20384;-80
2022/08/30 11:26:49;;;;;;;2.80;2.17;;;22.10;80.40;;;;;;5091135;28;20032;-80
2022/08/30 11:29:42;;;;;;;2.60;2.40;;;22.30;75.90;;;;;;5091359;28;20051;-80
2022/08/30 11:32:16;;;;;;;2.92;2.30;;;22.30;73.00;;;;;;5080572;28;20035;-80
2022/08/30 11:34:46;;;;;;;3.50;2.17;;;22.40;71.00;;;;;;5086414;28;20114;-80
2022/08/30 11:37:39;;;;;;;3.28;2.70;;;22.70;73.40;;;;;;5093296;28;20465;-80
2022/08/30 11:40:09;;;;;;;2.90;2.58;;;22.90;72.30;;;;;;5082464;28;20039;-80
2022/08/30 11:42:39;;;;;;;3.78;3.15;;;22.90;70.40;;;;;;5092996;28;20043;-80
2022/08/30 11:45:23;;;;;;;4.80;3.80;;;22.90;71.20;;;;;;5092339;28;20052;-80
2022/08/30 11:48:00;;;;;;;9.68;8.07;;;22.00;83.60;;;;;;5086421;28;20024;-81
2022/08/30 11:50:51;;;;;;;7.15;3.97;;;21.80;89.30;;;;;;5081477;28;20025;-80
2022/08/30 11:53:44;;;;;;;5.90;4.93;;;21.90;82.90;;;;;;5080750;28;20115;-81
2022/08/30 11:56:25;;;;;;;4.72;4.18;;;22.00;77.90;;;;;;5082854;28;20016;-81
2022/08/30 11:59:03;;;;;;;4.40;1.90;;;22.10;75.20;;;;;;5092896;28;20101;-80
2022/08/30 12:01:38;;;;;;;4.07;2.40;;;22.20;73.20;;;;;;5085640;28;20024;-80
2022/08/30 12:04:15;;;;;;;2.53;2.33;;;22.60;73.80;;;;;;5092596;28;20044;-80
2022/08/30 12:06:41;;;;;;;4.18;2.47;;;22.60;65.00;;;;;;5086989;28;20068;-80
2022/08/30 12:09:27;;;;;;;2.97;2.10;;;22.60;68.80;;;;;;5089922;28;20074;-80
2022/08/30 12:11:58;;;;;;;4.07;2.45;;;22.80;70.10;;;;;;5079283;28;20385;-80
2022/08/30 12:14:53;;;;;;;1.58;1.45;;;22.90;69.90;;;;;;5091907;28;20039;-80
2022/08/30 12:20:46;;;;;;;1.63;1.52;;;22.20;63.10;;;;;;5092327;28;20043;-81
2022/08/30 12:23:37;;;;;;;1.80;1.70;;;21.90;65.00;;;;;;5090548;28;20039;-80
2022/08/30 12:26:31;;;;;;;2.45;1.98;;;21.60;66.90;;;;;;5099735;28;20075;-81
2022/08/30 12:29:20;;;;;;;3.60;1.65;;;21.80;70.80;;;;;;5088964;28;20397;-80
2022/08/30 12:31:53;;;;;;;1.95;1.85;;;22.00;69.90;;;;;;5091708;28;20054;-80
2022/08/30 12:34:26;;;;;;;3.28;1.85;;;22.30;71.10;;;;;;5090092;28;20028;-80
2022/08/30 12:37:03;;;;;;;2.70;2.00;;;22.40;71.20;;;;;;5088769;28;20432;-79
2022/08/30 12:39:36;;;;;;;3.28;2.75;;;22.70;68.40;;;;;;5085085;28;20085;-80
2022/08/30 12:42:21;;;;;;;2.25;2.03;;;22.70;68.00;;;;;;5104224;28;20028;-81
2022/08/30 12:44:49;;;;;;;2.40;2.20;;;22.80;69.70;;;;;;5088638;28;20044;-81
2022/08/30 12:47:24;;;;;;;3.30;1.90;;;22.70;69.00;;;;;;5091882;28;20538;-80
2022/08/30 12:50:15;;;;;;;2.45;2.25;;;22.50;68.90;;;;;;5089786;28;20024;-81
2022/08/30 12:52:43;;;;;;;2.80;2.15;;;22.40;67.90;;;;;;5090907;28;20118;-82
2022/08/30 12:55:18;;;;;;;2.17;1.85;;;22.40;70.20;;;;;;5090937;28;20032;-81
2022/08/30 12:58:08;;;;;;;2.35;2.25;;;22.20;73.00;;;;;;5087137;28;20062;-82
2022/08/30 13:00:40;;;;;;;2.53;2.30;;;22.10;77.70;;;;;;5083549;27;20161;-82
2022/08/30 13:03:28;;;;;;;2.10;1.92;;;22.10;76.80;;;;;;5083575;28;20746;-82
2022/08/30 13:05:55;;;;;;;2.55;2.35;;;22.20;75.50;;;;;;5075459;27;20055;-82
2022/08/30 13:08:35;;;;;;;2.30;2.20;;;22.20;76.50;;;;;;5084709;28;20029;-81